sensor_id;sensor_type;location;lat;lon;timestamp;temperature;humidity
39023;DHT22;25908;51.984;5.928;2022-12-18T00:00:31;-1.00;99.90
39023;DHT22;25908;51.984;5.928;2022-12-18T00:02:57;-1.00;99.90
39023;DHT22;25908;51.984;5.928;2022-12-18T00:05:22;-1.00;99.90
39023;DHT22;25908;51.984;5.928;2022-12-18T00:07:48;-1.00;99.90
39023;DHT22;25908;51.984;5.928;2022-12-18T00:10:14;-1.00;99.90
39023;DHT22;25908;51.984;5.928;2022-12-18T00:12:39;-1.00;99.90
39023;DHT22;25908;51.984;5.928;2022-12-18T00:15:05;-1.10;99.90
39023;DHT22;25908;51.984;5.928;2022-12-18T00:17:31;-1.20;99.90
39023;DHT22;25908;51.984;5.928;2022-12-18T00:19:57;-1.20;99.90
39023;DHT22;25908;51.984;5.928;2022-12-18T00:22:22;-1.30;99.90
39023;DHT22;25908;51.984;5.928;2022-12-18T00:24:48;-1.40;99.90
39023;DHT22;25908;51.984;5.928;2022-12-18T00:27:13;-1.40;99.90
39023;DHT22;25908;51.984;5.928;2022-12-18T00:29:39;-1.50;99.90
39023;DHT22;25908;51.984;5.928;2022-12-18T00:32:04;-1.50;99.90
39023;DHT22;25908;51.984;5.928;2022-12-18T00:34:30;-1.50;99.90
39023;DHT22;25908;51.984;5.928;2022-12-18T00:36:55;-1.50;99.90
39023;DHT22;25908;51.984;5.928;2022-12-18T00:39:21;-1.50;99.90
39023;DHT22;25908;51.984;5.928;2022-12-18T00:41:47;-1.50;99.90
39023;DHT22;25908;51.984;5.928;2022-12-18T00:44:32;-1.60;99.90
39023;DHT22;25908;51.984;5.928;2022-12-18T00:46:57;-1.60;99.90
39023;DHT22;25908;51.984;5.928;2022-12-18T00:49:23;-1.60;99.90
39023;DHT22;25908;51.984;5.928;2022-12-18T00:51:48;-1.60;99.90
39023;DHT22;25908;51.984;5.928;2022-12-18T00:54:15;-1.50;99.90
39023;DHT22;25908;51.984;5.928;2022-12-18T00:56:40;-1.50;99.90
39023;DHT22;25908;51.984;5.928;2022-12-18T00:59:06;-1.50;99.90
39023;DHT22;25908;51.984;5.928;2022-12-18T01:01:32;-1.50;99.90
39023;DHT22;25908;51.984;5.928;2022-12-18T01:03:59;-1.60;99.90
39023;DHT22;25908;51.984;5.928;2022-12-18T01:06:24;-1.60;99.90
39023;DHT22;25908;51.984;5.928;2022-12-18T01:08:50;-1.60;99.90
39023;DHT22;25908;51.984;5.928;2022-12-18T01:11:18;-1.60;99.90
39023;DHT22;25908;51.984;5.928;2022-12-18T01:13:43;-1.60;99.90
39023;DHT22;25908;51.984;5.928;2022-12-18T01:16:12;-1.60;99.90
39023;DHT22;25908;51.984;5.928;2022-12-18T01:18:38;-1.50;99.90
39023;DHT22;25908;51.984;5.928;2022-12-18T01:21:11;-1.50;99.90
39023;DHT22;25908;51.984;5.928;2022-12-18T01:23:37;-1.50;99.90
39023;DHT22;25908;51.984;5.928;2022-12-18T01:26:12;-1.60;99.90
39023;DHT22;25908;51.984;5.928;2022-12-18T01:28:38;-1.50;99.90
39023;DHT22;25908;51.984;5.928;2022-12-18T01:31:20;-1.60;99.90
39023;DHT22;25908;51.984;5.928;2022-12-18T01:33:46;-1.60;99.90
39023;DHT22;25908;51.984;5.928;2022-12-18T01:36:16;-1.60;99.90
39023;DHT22;25908;51.984;5.928;2022-12-18T01:38:42;-1.60;99.90
39023;DHT22;25908;51.984;5.928;2022-12-18T01:41:10;-1.60;99.90
39023;DHT22;25908;51.984;5.928;2022-12-18T01:43:41;-1.70;99.90
39023;DHT22;25908;51.984;5.928;2022-12-18T01:46:07;-1.60;99.90
39023;DHT22;25908;51.984;5.928;2022-12-18T01:48:32;-1.60;99.90
39023;DHT22;25908;51.984;5.928;2022-12-18T01:51:01;-1.60;99.90
39023;DHT22;25908;51.984;5.928;2022-12-18T01:53:27;-1.60;99.90
39023;DHT22;25908;51.984;5.928;2022-12-18T01:55:55;-1.70;99.90
39023;DHT22;25908;51.984;5.928;2022-12-18T01:58:39;-1.70;99.90
39023;DHT22;25908;51.984;5.928;2022-12-18T02:01:04;-1.60;99.90
39023;DHT22;25908;51.984;5.928;2022-12-18T02:03:30;-1.70;99.90
39023;DHT22;25908;51.984;5.928;2022-12-18T02:06:15;-1.70;99.90
39023;DHT22;25908;51.984;5.928;2022-12-18T02:09:09;-1.70;99.90
39023;DHT22;25908;51.984;5.928;2022-12-18T02:11:53;-1.70;99.90
39023;DHT22;25908;51.984;5.928;2022-12-18T02:27:32;-1.90;99.90
39023;DHT22;25908;51.984;5.928;2022-12-18T02:29:59;-1.90;99.90
39023;DHT22;25908;51.984;5.928;2022-12-18T02:32:30;-1.90;99.90
39023;DHT22;25908;51.984;5.928;2022-12-18T02:34:57;-1.90;99.90
39023;DHT22;25908;51.984;5.928;2022-12-18T02:37:26;-1.90;99.90
39023;DHT22;25908;51.984;5.928;2022-12-18T02:39:55;-1.90;99.90
39023;DHT22;25908;51.984;5.928;2022-12-18T02:42:22;-1.90;99.90
39023;DHT22;25908;51.984;5.928;2022-12-18T02:44:50;-1.90;99.90
39023;DHT22;25908;51.984;5.928;2022-12-18T02:47:18;-1.90;99.90
39023;DHT22;25908;51.984;5.928;2022-12-18T02:50:07;-1.90;99.90
39023;DHT22;25908;51.984;5.928;2022-12-18T03:03:39;-1.90;99.90
39023;DHT22;25908;51.984;5.928;2022-12-18T03:06:12;-1.90;99.90
39023;DHT22;25908;51.984;5.928;2022-12-18T03:08:44;-1.90;99.90
39023;DHT22;25908;51.984;5.928;2022-12-18T03:11:12;-1.90;99.90
39023;DHT22;25908;51.984;5.928;2022-12-18T03:13:59;-1.90;99.90
39023;DHT22;25908;51.984;5.928;2022-12-18T03:16:28;-1.90;99.90
39023;DHT22;25908;51.984;5.928;2022-12-18T03:18:54;-1.90;99.90
39023;DHT22;25908;51.984;5.928;2022-12-18T03:21:26;-1.90;99.80
39023;DHT22;25908;51.984;5.928;2022-12-18T03:23:53;-1.90;99.80
39023;DHT22;25908;51.984;5.928;2022-12-18T03:26:23;-2.00;99.70
39023;DHT22;25908;51.984;5.928;2022-12-18T03:29:07;-2.00;99.60
39023;DHT22;25908;51.984;5.928;2022-12-18T03:31:34;-2.00;99.70
39023;DHT22;25908;51.984;5.928;2022-12-18T03:34:05;-2.00;99.70
39023;DHT22;25908;51.984;5.928;2022-12-18T03:36:34;-2.00;99.70
39023;DHT22;25908;51.984;5.928;2022-12-18T03:39:00;-2.00;99.70
39023;DHT22;25908;51.984;5.928;2022-12-18T03:41:32;-2.00;99.70
39023;DHT22;25908;51.984;5.928;2022-12-18T03:47:27;-2.00;99.60
39023;DHT22;25908;51.984;5.928;2022-12-18T03:52:54;-2.00;99.60
39023;DHT22;25908;51.984;5.928;2022-12-18T03:55:24;-2.00;99.50
39023;DHT22;25908;51.984;5.928;2022-12-18T03:57:53;-2.00;99.40
39023;DHT22;25908;51.984;5.928;2022-12-18T04:00:19;-2.00;99.50
39023;DHT22;25908;51.984;5.928;2022-12-18T04:02:49;-2.00;99.50
39023;DHT22;25908;51.984;5.928;2022-12-18T04:05:17;-2.00;99.40
39023;DHT22;25908;51.984;5.928;2022-12-18T04:07:44;-2.10;99.50
39023;DHT22;25908;51.984;5.928;2022-12-18T04:10:12;-2.10;99.60
39023;DHT22;25908;51.984;5.928;2022-12-18T04:12:38;-2.10;99.80
39023;DHT22;25908;51.984;5.928;2022-12-18T04:15:05;-2.10;99.50
39023;DHT22;25908;51.984;5.928;2022-12-18T04:17:31;-2.10;99.50
39023;DHT22;25908;51.984;5.928;2022-12-18T04:19:56;-2.10;99.50
39023;DHT22;25908;51.984;5.928;2022-12-18T04:22:22;-2.10;99.50
39023;DHT22;25908;51.984;5.928;2022-12-18T04:24:48;-2.10;99.50
39023;DHT22;25908;51.984;5.928;2022-12-18T04:27:13;-2.10;99.50
39023;DHT22;25908;51.984;5.928;2022-12-18T04:29:39;-2.10;99.60
39023;DHT22;25908;51.984;5.928;2022-12-18T04:32:05;-2.00;99.50
39023;DHT22;25908;51.984;5.928;2022-12-18T04:34:30;-2.10;99.50
39023;DHT22;25908;51.984;5.928;2022-12-18T04:36:56;-2.10;99.40
39023;DHT22;25908;51.984;5.928;2022-12-18T04:39:22;-2.10;99.30
39023;DHT22;25908;51.984;5.928;2022-12-18T04:41:47;-2.10;99.30
39023;DHT22;25908;51.984;5.928;2022-12-18T04:44:13;-2.10;99.40
39023;DHT22;25908;51.984;5.928;2022-12-18T04:46:39;-2.10;99.40
39023;DHT22;25908;51.984;5.928;2022-12-18T04:49:04;-2.10;99.40
39023;DHT22;25908;51.984;5.928;2022-12-18T04:51:30;-2.10;99.60
39023;DHT22;25908;51.984;5.928;2022-12-18T04:53:56;-2.10;99.50
39023;DHT22;25908;51.984;5.928;2022-12-18T04:56:22;-2.10;99.40
39023;DHT22;25908;51.984;5.928;2022-12-18T04:58:48;-2.10;99.70
39023;DHT22;25908;51.984;5.928;2022-12-18T05:01:15;-2.10;99.40
39023;DHT22;25908;51.984;5.928;2022-12-18T05:03:42;-2.10;99.50
39023;DHT22;25908;51.984;5.928;2022-12-18T05:06:07;-2.10;99.40
39023;DHT22;25908;51.984;5.928;2022-12-18T05:08:33;-2.10;99.30
39023;DHT22;25908;51.984;5.928;2022-12-18T05:13:29;-2.10;99.30
39023;DHT22;25908;51.984;5.928;2022-12-18T05:15:55;-2.00;99.20
39023;DHT22;25908;51.984;5.928;2022-12-18T05:18:21;-2.10;99.10
39023;DHT22;25908;51.984;5.928;2022-12-18T05:20:47;-2.10;99.00
39023;DHT22;25908;51.984;5.928;2022-12-18T05:23:12;-2.10;98.90
39023;DHT22;25908;51.984;5.928;2022-12-18T05:25:38;-2.10;99.00
39023;DHT22;25908;51.984;5.928;2022-12-18T05:28:04;-2.10;99.10
39023;DHT22;25908;51.984;5.928;2022-12-18T05:30:29;-2.10;99.10
39023;DHT22;25908;51.984;5.928;2022-12-18T05:32:55;-2.10;99.10
39023;DHT22;25908;51.984;5.928;2022-12-18T05:35:20;-2.10;99.10
39023;DHT22;25908;51.984;5.928;2022-12-18T05:37:46;-2.10;99.20
39023;DHT22;25908;51.984;5.928;2022-12-18T05:40:12;-2.10;99.20
39023;DHT22;25908;51.984;5.928;2022-12-18T05:42:38;-2.10;99.30
39023;DHT22;25908;51.984;5.928;2022-12-18T05:45:04;-2.00;99.30
39023;DHT22;25908;51.984;5.928;2022-12-18T05:47:31;-2.00;99.10
39023;DHT22;25908;51.984;5.928;2022-12-18T05:49:56;-2.10;99.00
39023;DHT22;25908;51.984;5.928;2022-12-18T05:52:22;-2.10;99.00
39023;DHT22;25908;51.984;5.928;2022-12-18T05:54:48;-2.00;99.10
39023;DHT22;25908;51.984;5.928;2022-12-18T05:57:13;-2.10;99.20
39023;DHT22;25908;51.984;5.928;2022-12-18T05:59:39;-2.10;99.20
39023;DHT22;25908;51.984;5.928;2022-12-18T06:02:05;-2.10;99.20
39023;DHT22;25908;51.984;5.928;2022-12-18T06:04:31;-2.00;99.20
39023;DHT22;25908;51.984;5.928;2022-12-18T06:06:57;-2.00;99.20
39023;DHT22;25908;51.984;5.928;2022-12-18T06:09:23;-2.00;99.10
39023;DHT22;25908;51.984;5.928;2022-12-18T06:11:48;-2.10;99.10
39023;DHT22;25908;51.984;5.928;2022-12-18T06:14:16;-2.10;99.10
39023;DHT22;25908;51.984;5.928;2022-12-18T06:16:42;-2.00;99.20
39023;DHT22;25908;51.984;5.928;2022-12-18T06:19:12;-2.00;99.20
39023;DHT22;25908;51.984;5.928;2022-12-18T06:21:38;-2.00;99.10
39023;DHT22;25908;51.984;5.928;2022-12-18T06:24:04;-2.00;99.10
39023;DHT22;25908;51.984;5.928;2022-12-18T06:26:30;-2.00;99.10
39023;DHT22;25908;51.984;5.928;2022-12-18T06:28:56;-2.00;99.10
39023;DHT22;25908;51.984;5.928;2022-12-18T06:31:21;-2.00;99.10
39023;DHT22;25908;51.984;5.928;2022-12-18T06:33:47;-2.00;99.10
39023;DHT22;25908;51.984;5.928;2022-12-18T06:36:13;-2.00;99.10
39023;DHT22;25908;51.984;5.928;2022-12-18T06:38:41;-2.00;99.10
39023;DHT22;25908;51.984;5.928;2022-12-18T06:41:16;-2.00;99.10
39023;DHT22;25908;51.984;5.928;2022-12-18T06:43:42;-2.00;99.10
39023;DHT22;25908;51.984;5.928;2022-12-18T06:46:08;-2.00;99.00
39023;DHT22;25908;51.984;5.928;2022-12-18T06:48:34;-2.00;99.00
39023;DHT22;25908;51.984;5.928;2022-12-18T06:50:59;-2.00;99.00
39023;DHT22;25908;51.984;5.928;2022-12-18T06:53:25;-2.00;99.00
39023;DHT22;25908;51.984;5.928;2022-12-18T06:55:51;-2.00;99.00
39023;DHT22;25908;51.984;5.928;2022-12-18T06:58:17;-2.00;99.00
39023;DHT22;25908;51.984;5.928;2022-12-18T07:00:42;-2.00;99.00
39023;DHT22;25908;51.984;5.928;2022-12-18T07:03:08;-2.00;98.90
39023;DHT22;25908;51.984;5.928;2022-12-18T07:05:34;-2.00;99.00
39023;DHT22;25908;51.984;5.928;2022-12-18T07:07:59;-2.00;98.90
39023;DHT22;25908;51.984;5.928;2022-12-18T07:10:25;-2.00;99.00
39023;DHT22;25908;51.984;5.928;2022-12-18T07:12:51;-1.90;99.00
39023;DHT22;25908;51.984;5.928;2022-12-18T07:15:16;-1.90;99.10
39023;DHT22;25908;51.984;5.928;2022-12-18T07:17:42;-1.90;99.20
39023;DHT22;25908;51.984;5.928;2022-12-18T07:20:08;-1.90;99.10
39023;DHT22;25908;51.984;5.928;2022-12-18T07:22:34;-1.90;99.10
39023;DHT22;25908;51.984;5.928;2022-12-18T07:24:59;-1.90;99.10
39023;DHT22;25908;51.984;5.928;2022-12-18T07:27:25;-1.80;99.00
39023;DHT22;25908;51.984;5.928;2022-12-18T07:29:52;-1.90;99.00
39023;DHT22;25908;51.984;5.928;2022-12-18T07:32:17;-1.80;99.00
39023;DHT22;25908;51.984;5.928;2022-12-18T07:34:43;-1.70;99.00
39023;DHT22;25908;51.984;5.928;2022-12-18T07:37:09;-1.70;98.90
39023;DHT22;25908;51.984;5.928;2022-12-18T07:39:35;-1.60;98.90
39023;DHT22;25908;51.984;5.928;2022-12-18T07:42:00;-1.60;98.80
39023;DHT22;25908;51.984;5.928;2022-12-18T07:44:44;-1.60;98.70
39023;DHT22;25908;51.984;5.928;2022-12-18T07:47:10;-1.60;98.70
39023;DHT22;25908;51.984;5.928;2022-12-18T07:49:35;-1.60;98.70
39023;DHT22;25908;51.984;5.928;2022-12-18T07:52:01;-1.60;98.50
39023;DHT22;25908;51.984;5.928;2022-12-18T07:54:27;-1.50;98.60
39023;DHT22;25908;51.984;5.928;2022-12-18T07:56:53;-1.50;98.50
39023;DHT22;25908;51.984;5.928;2022-12-18T07:59:18;-1.50;98.50
39023;DHT22;25908;51.984;5.928;2022-12-18T08:01:44;-1.40;98.60
39023;DHT22;25908;51.984;5.928;2022-12-18T08:04:10;-1.40;98.40
39023;DHT22;25908;51.984;5.928;2022-12-18T08:06:35;-1.40;98.40
39023;DHT22;25908;51.984;5.928;2022-12-18T08:09:01;-1.40;98.30
39023;DHT22;25908;51.984;5.928;2022-12-18T08:11:27;-1.40;98.30
39023;DHT22;25908;51.984;5.928;2022-12-18T08:13:54;-1.40;98.40
39023;DHT22;25908;51.984;5.928;2022-12-18T08:16:21;-1.30;98.30
39023;DHT22;25908;51.984;5.928;2022-12-18T08:18:47;-1.30;98.50
39023;DHT22;25908;51.984;5.928;2022-12-18T08:21:16;-1.30;98.50
39023;DHT22;25908;51.984;5.928;2022-12-18T08:23:42;-1.20;98.40
39023;DHT22;25908;51.984;5.928;2022-12-18T08:26:08;-1.20;98.40
39023;DHT22;25908;51.984;5.928;2022-12-18T08:28:34;-1.20;98.40
39023;DHT22;25908;51.984;5.928;2022-12-18T08:31:00;-1.10;98.40
39023;DHT22;25908;51.984;5.928;2022-12-18T08:33:26;-1.10;98.40
39023;DHT22;25908;51.984;5.928;2022-12-18T08:35:52;-1.00;98.40
39023;DHT22;25908;51.984;5.928;2022-12-18T08:38:17;-1.00;98.30
39023;DHT22;25908;51.984;5.928;2022-12-18T08:40:43;-0.90;98.20
39023;DHT22;25908;51.984;5.928;2022-12-18T08:43:12;-0.90;98.00
39023;DHT22;25908;51.984;5.928;2022-12-18T08:45:56;-0.90;98.10
39023;DHT22;25908;51.984;5.928;2022-12-18T08:48:22;-0.80;98.00
39023;DHT22;25908;51.984;5.928;2022-12-18T08:50:58;-0.80;98.00
39023;DHT22;25908;51.984;5.928;2022-12-18T08:53:24;-0.80;98.10
39023;DHT22;25908;51.984;5.928;2022-12-18T08:55:49;-0.70;98.20
39023;DHT22;25908;51.984;5.928;2022-12-18T08:58:15;-0.70;98.00
39023;DHT22;25908;51.984;5.928;2022-12-18T09:00:40;-0.70;98.00
39023;DHT22;25908;51.984;5.928;2022-12-18T09:03:12;-0.70;97.80
39023;DHT22;25908;51.984;5.928;2022-12-18T09:05:37;-0.70;97.80
39023;DHT22;25908;51.984;5.928;2022-12-18T09:08:03;-0.60;98.00
39023;DHT22;25908;51.984;5.928;2022-12-18T09:10:29;-0.50;97.90
39023;DHT22;25908;51.984;5.928;2022-12-18T09:12:54;-0.50;97.80
39023;DHT22;25908;51.984;5.928;2022-12-18T09:15:21;-0.50;97.80
39023;DHT22;25908;51.984;5.928;2022-12-18T09:17:47;-0.50;97.80
39023;DHT22;25908;51.984;5.928;2022-12-18T09:20:13;-0.50;97.90
39023;DHT22;25908;51.984;5.928;2022-12-18T09:22:39;-0.40;98.00
39023;DHT22;25908;51.984;5.928;2022-12-18T09:25:05;-0.40;97.80
39023;DHT22;25908;51.984;5.928;2022-12-18T09:27:33;-0.30;97.90
39023;DHT22;25908;51.984;5.928;2022-12-18T09:29:59;-0.30;97.80
39023;DHT22;25908;51.984;5.928;2022-12-18T09:32:25;-0.20;97.90
39023;DHT22;25908;51.984;5.928;2022-12-18T09:34:50;-0.20;97.90
39023;DHT22;25908;51.984;5.928;2022-12-18T09:37:16;-0.20;98.10
39023;DHT22;25908;51.984;5.928;2022-12-18T09:39:41;-0.10;97.70
39023;DHT22;25908;51.984;5.928;2022-12-18T09:42:16;-0.10;97.60
39023;DHT22;25908;51.984;5.928;2022-12-18T09:44:48;0.00;97.70
39023;DHT22;25908;51.984;5.928;2022-12-18T09:47:36;0.00;97.70
39023;DHT22;25908;51.984;5.928;2022-12-18T09:50:32;0.10;97.30
39023;DHT22;25908;51.984;5.928;2022-12-18T09:53:04;0.20;97.30
39023;DHT22;25908;51.984;5.928;2022-12-18T09:55:33;0.20;97.20
39023;DHT22;25908;51.984;5.928;2022-12-18T09:58:25;0.20;97.00
39023;DHT22;25908;51.984;5.928;2022-12-18T10:00:52;0.30;96.80
39023;DHT22;25908;51.984;5.928;2022-12-18T10:03:18;0.30;96.90
39023;DHT22;25908;51.984;5.928;2022-12-18T10:06:02;0.40;96.50
39023;DHT22;25908;51.984;5.928;2022-12-18T10:13:49;0.40;96.60
39023;DHT22;25908;51.984;5.928;2022-12-18T10:26:31;0.60;95.80
39023;DHT22;25908;51.984;5.928;2022-12-18T10:28:58;0.60;96.00
39023;DHT22;25908;51.984;5.928;2022-12-18T10:31:24;0.60;96.10
39023;DHT22;25908;51.984;5.928;2022-12-18T10:33:50;0.60;96.10
39023;DHT22;25908;51.984;5.928;2022-12-18T10:36:17;0.70;95.70
39023;DHT22;25908;51.984;5.928;2022-12-18T10:38:42;0.70;95.80
39023;DHT22;25908;51.984;5.928;2022-12-18T10:43:42;0.70;95.70
39023;DHT22;25908;51.984;5.928;2022-12-18T10:48:38;0.70;95.80
39023;DHT22;25908;51.984;5.928;2022-12-18T10:51:06;0.70;95.70
39023;DHT22;25908;51.984;5.928;2022-12-18T10:53:34;0.80;95.80
39023;DHT22;25908;51.984;5.928;2022-12-18T10:56:00;0.80;96.00
39023;DHT22;25908;51.984;5.928;2022-12-18T10:58:33;0.80;95.90
39023;DHT22;25908;51.984;5.928;2022-12-18T11:06:12;0.90;95.70
39023;DHT22;25908;51.984;5.928;2022-12-18T11:08:39;1.00;95.50
39023;DHT22;25908;51.984;5.928;2022-12-18T11:11:21;1.00;95.30
39023;DHT22;25908;51.984;5.928;2022-12-18T11:16:25;1.10;95.20
39023;DHT22;25908;51.984;5.928;2022-12-18T11:18:51;1.10;94.70
39023;DHT22;25908;51.984;5.928;2022-12-18T11:21:17;1.10;94.40
39023;DHT22;25908;51.984;5.928;2022-12-18T11:23:51;1.10;94.70
39023;DHT22;25908;51.984;5.928;2022-12-18T11:26:18;1.10;94.20
39023;DHT22;25908;51.984;5.928;2022-12-18T11:31:21;1.20;94.30
39023;DHT22;25908;51.984;5.928;2022-12-18T11:34:32;1.20;94.40
39023;DHT22;25908;51.984;5.928;2022-12-18T11:36:59;1.30;94.30
39023;DHT22;25908;51.984;5.928;2022-12-18T11:39:39;1.30;94.40
39023;DHT22;25908;51.984;5.928;2022-12-18T11:45:02;1.40;94.00
39023;DHT22;25908;51.984;5.928;2022-12-18T11:47:39;1.50;94.10
39023;DHT22;25908;51.984;5.928;2022-12-18T11:50:16;1.50;93.30
39023;DHT22;25908;51.984;5.928;2022-12-18T11:52:42;1.50;93.30
39023;DHT22;25908;51.984;5.928;2022-12-18T11:55:16;1.50;93.40
39023;DHT22;25908;51.984;5.928;2022-12-18T12:00:56;1.60;93.20
39023;DHT22;25908;51.984;5.928;2022-12-18T12:03:45;1.60;93.00
39023;DHT22;25908;51.984;5.928;2022-12-18T12:06:22;1.60;93.10
39023;DHT22;25908;51.984;5.928;2022-12-18T12:17:18;1.60;92.60
39023;DHT22;25908;51.984;5.928;2022-12-18T12:20:13;1.60;92.60
39023;DHT22;25908;51.984;5.928;2022-12-18T12:23:03;1.60;92.30
39023;DHT22;25908;51.984;5.928;2022-12-18T12:28:18;1.60;92.40
39023;DHT22;25908;51.984;5.928;2022-12-18T12:33:44;1.70;92.50
39023;DHT22;25908;51.984;5.928;2022-12-18T12:36:21;1.70;92.60
39023;DHT22;25908;51.984;5.928;2022-12-18T12:38:57;1.80;92.20
39023;DHT22;25908;51.984;5.928;2022-12-18T12:41:27;1.80;92.10
39023;DHT22;25908;51.984;5.928;2022-12-18T12:47:24;1.90;92.20
39023;DHT22;25908;51.984;5.928;2022-12-18T12:49:50;1.90;91.70
39023;DHT22;25908;51.984;5.928;2022-12-18T12:54:54;1.90;91.60
39023;DHT22;25908;51.984;5.928;2022-12-18T12:57:31;1.90;91.50
39023;DHT22;25908;51.984;5.928;2022-12-18T13:00:12;1.90;91.60
39023;DHT22;25908;51.984;5.928;2022-12-18T13:05:56;1.90;91.90
39023;DHT22;25908;51.984;5.928;2022-12-18T13:08:29;2.00;91.90
39023;DHT22;25908;51.984;5.928;2022-12-18T13:10:57;2.00;91.90
39023;DHT22;25908;51.984;5.928;2022-12-18T13:13:50;2.10;91.60
39023;DHT22;25908;51.984;5.928;2022-12-18T13:16:22;2.10;91.40
39023;DHT22;25908;51.984;5.928;2022-12-18T13:18:53;2.10;91.50
39023;DHT22;25908;51.984;5.928;2022-12-18T13:21:34;2.10;91.40
39023;DHT22;25908;51.984;5.928;2022-12-18T13:24:27;2.10;91.20
39023;DHT22;25908;51.984;5.928;2022-12-18T13:26:53;2.10;91.20
39023;DHT22;25908;51.984;5.928;2022-12-18T13:29:42;2.10;90.90
39023;DHT22;25908;51.984;5.928;2022-12-18T13:32:21;2.00;91.00
39023;DHT22;25908;51.984;5.928;2022-12-18T13:34:46;2.00;91.00
39023;DHT22;25908;51.984;5.928;2022-12-18T13:39:56;2.00;90.80
39023;DHT22;25908;51.984;5.928;2022-12-18T13:45:38;2.00;90.90
39023;DHT22;25908;51.984;5.928;2022-12-18T13:48:04;2.00;90.90
39023;DHT22;25908;51.984;5.928;2022-12-18T13:50:30;2.10;91.10
39023;DHT22;25908;51.984;5.928;2022-12-18T13:52:56;2.10;91.00
39023;DHT22;25908;51.984;5.928;2022-12-18T13:55:23;2.10;90.90
39023;DHT22;25908;51.984;5.928;2022-12-18T13:57:49;2.20;90.80
39023;DHT22;25908;51.984;5.928;2022-12-18T14:00:27;2.20;90.70
39023;DHT22;25908;51.984;5.928;2022-12-18T14:02:54;2.20;90.60
39023;DHT22;25908;51.984;5.928;2022-12-18T14:05:31;2.20;90.60
39023;DHT22;25908;51.984;5.928;2022-12-18T14:08:11;2.20;91.00
39023;DHT22;25908;51.984;5.928;2022-12-18T14:10:42;2.20;90.50
39023;DHT22;25908;51.984;5.928;2022-12-18T14:13:09;2.30;90.50
39023;DHT22;25908;51.984;5.928;2022-12-18T14:15:43;2.30;90.50
39023;DHT22;25908;51.984;5.928;2022-12-18T14:21:27;2.20;90.60
39023;DHT22;25908;51.984;5.928;2022-12-18T14:24:16;2.20;90.80
39023;DHT22;25908;51.984;5.928;2022-12-18T14:26:42;2.20;90.80
39023;DHT22;25908;51.984;5.928;2022-12-18T14:29:35;2.20;90.60
39023;DHT22;25908;51.984;5.928;2022-12-18T14:32:11;2.20;90.70
39023;DHT22;25908;51.984;5.928;2022-12-18T14:34:39;2.30;90.80
39023;DHT22;25908;51.984;5.928;2022-12-18T14:37:07;2.20;90.80
39023;DHT22;25908;51.984;5.928;2022-12-18T14:39:34;2.20;90.80
39023;DHT22;25908;51.984;5.928;2022-12-18T14:42:00;2.30;90.90
39023;DHT22;25908;51.984;5.928;2022-12-18T14:44:25;2.20;90.80
39023;DHT22;25908;51.984;5.928;2022-12-18T14:46:51;2.20;90.80
39023;DHT22;25908;51.984;5.928;2022-12-18T14:51:54;2.20;91.10
39023;DHT22;25908;51.984;5.928;2022-12-18T14:54:20;2.20;91.10
39023;DHT22;25908;51.984;5.928;2022-12-18T14:56:55;2.20;91.10
39023;DHT22;25908;51.984;5.928;2022-12-18T14:59:25;2.20;91.00
39023;DHT22;25908;51.984;5.928;2022-12-18T15:02:02;2.30;91.20
39023;DHT22;25908;51.984;5.928;2022-12-18T15:04:33;2.30;91.40
39023;DHT22;25908;51.984;5.928;2022-12-18T15:07:17;2.30;90.80
39023;DHT22;25908;51.984;5.928;2022-12-18T15:09:44;2.30;91.00
39023;DHT22;25908;51.984;5.928;2022-12-18T15:12:40;2.20;90.80
39023;DHT22;25908;51.984;5.928;2022-12-18T15:20:50;2.20;91.10
39023;DHT22;25908;51.984;5.928;2022-12-18T15:25:56;2.10;90.90
39023;DHT22;25908;51.984;5.928;2022-12-18T15:28:38;2.10;90.90
39023;DHT22;25908;51.984;5.928;2022-12-18T15:33:45;2.10;91.10
39023;DHT22;25908;51.984;5.928;2022-12-18T15:36:31;2.20;91.40
39023;DHT22;25908;51.984;5.928;2022-12-18T15:39:02;2.20;90.80
39023;DHT22;25908;51.984;5.928;2022-12-18T15:41:31;2.10;90.70
39023;DHT22;25908;51.984;5.928;2022-12-18T15:43:58;2.10;90.90
39023;DHT22;25908;51.984;5.928;2022-12-18T15:46:24;2.10;90.80
39023;DHT22;25908;51.984;5.928;2022-12-18T15:48:54;2.10;90.70
39023;DHT22;25908;51.984;5.928;2022-12-18T15:51:28;2.10;90.70
39023;DHT22;25908;51.984;5.928;2022-12-18T15:53:56;2.10;90.90
39023;DHT22;25908;51.984;5.928;2022-12-18T15:56:22;2.10;90.90
39023;DHT22;25908;51.984;5.928;2022-12-18T15:59:15;2.10;91.10
39023;DHT22;25908;51.984;5.928;2022-12-18T16:01:43;2.20;91.10
39023;DHT22;25908;51.984;5.928;2022-12-18T16:04:14;2.30;90.90
39023;DHT22;25908;51.984;5.928;2022-12-18T16:06:40;2.30;90.90
39023;DHT22;25908;51.984;5.928;2022-12-18T16:09:07;2.30;90.90
39023;DHT22;25908;51.984;5.928;2022-12-18T16:11:34;2.40;90.80
39023;DHT22;25908;51.984;5.928;2022-12-18T16:14:20;2.40;90.90
39023;DHT22;25908;51.984;5.928;2022-12-18T16:16:49;2.40;90.70
39023;DHT22;25908;51.984;5.928;2022-12-18T16:19:15;2.40;90.80
39023;DHT22;25908;51.984;5.928;2022-12-18T16:21:42;2.40;90.60
39023;DHT22;25908;51.984;5.928;2022-12-18T16:24:18;2.40;90.70
39023;DHT22;25908;51.984;5.928;2022-12-18T16:26:44;2.40;90.80
39023;DHT22;25908;51.984;5.928;2022-12-18T16:29:10;2.40;90.80
39023;DHT22;25908;51.984;5.928;2022-12-18T16:31:37;2.40;90.60
39023;DHT22;25908;51.984;5.928;2022-12-18T16:34:21;2.30;90.60
39023;DHT22;25908;51.984;5.928;2022-12-18T16:36:48;2.30;90.70
39023;DHT22;25908;51.984;5.928;2022-12-18T16:39:14;2.30;90.80
39023;DHT22;25908;51.984;5.928;2022-12-18T16:41:39;2.20;90.60
39023;DHT22;25908;51.984;5.928;2022-12-18T16:44:05;2.30;90.60
39023;DHT22;25908;51.984;5.928;2022-12-18T16:46:31;2.30;90.70
39023;DHT22;25908;51.984;5.928;2022-12-18T16:48:58;2.30;90.30
39023;DHT22;25908;51.984;5.928;2022-12-18T16:51:24;2.20;90.40
39023;DHT22;25908;51.984;5.928;2022-12-18T16:53:50;2.20;90.30
39023;DHT22;25908;51.984;5.928;2022-12-18T16:56:15;2.10;90.70
39023;DHT22;25908;51.984;5.928;2022-12-18T16:58:41;2.10;90.70
39023;DHT22;25908;51.984;5.928;2022-12-18T17:01:08;2.00;90.80
39023;DHT22;25908;51.984;5.928;2022-12-18T17:03:34;2.10;90.90
39023;DHT22;25908;51.984;5.928;2022-12-18T17:06:06;2.10;90.90
39023;DHT22;25908;51.984;5.928;2022-12-18T17:08:36;2.10;90.90
39023;DHT22;25908;51.984;5.928;2022-12-18T17:11:07;2.10;91.00
39023;DHT22;25908;51.984;5.928;2022-12-18T17:13:34;2.10;91.00
39023;DHT22;25908;51.984;5.928;2022-12-18T17:16:07;2.20;91.30
39023;DHT22;25908;51.984;5.928;2022-12-18T17:18:34;2.20;91.00
39023;DHT22;25908;51.984;5.928;2022-12-18T17:21:05;2.20;91.20
39023;DHT22;25908;51.984;5.928;2022-12-18T17:23:31;2.20;91.20
39023;DHT22;25908;51.984;5.928;2022-12-18T17:26:03;2.20;91.30
39023;DHT22;25908;51.984;5.928;2022-12-18T17:28:32;2.20;91.10
39023;DHT22;25908;51.984;5.928;2022-12-18T17:30:58;2.20;91.50
39023;DHT22;25908;51.984;5.928;2022-12-18T17:33:25;2.20;91.10
39023;DHT22;25908;51.984;5.928;2022-12-18T17:35:51;2.20;91.40
39023;DHT22;25908;51.984;5.928;2022-12-18T17:38:17;2.20;91.30
39023;DHT22;25908;51.984;5.928;2022-12-18T17:40:43;2.20;91.30
39023;DHT22;25908;51.984;5.928;2022-12-18T17:43:09;2.20;91.40
39023;DHT22;25908;51.984;5.928;2022-12-18T17:45:37;2.10;91.50